Time;durP1;ratioP1;P1;durP2;ratioP2;P2;SDS_P1;SDS_P2;PMS_P1;PMS_P2;Temp;Humidity;BMP_temperature;BMP_pressure;BME280_temperature;BME280_humidity;BME280_pressure;Samples;Min_cycle;Max_cycle;Signal;HPM_P1;HPM_P2
2023/08/06 00:00:56;;;;;;;2.13;1.70;;;13.20;99.90;;;;;;5001596;28;20056;-77
2023/08/06 00:03:23;;;;;;;2.45;1.52;;;13.20;99.90;;;;;;5005251;28;20046;-76
2023/08/06 00:05:51;;;;;;;3.28;1.50;;;13.20;99.90;;;;;;5013085;28;20057;-77
2023/08/06 00:08:18;;;;;;;3.70;1.48;;;13.10;99.90;;;;;;4988795;28;20104;-76
2023/08/06 00:10:46;;;;;;;2.17;1.17;;;13.10;99.90;;;;;;5019409;28;20084;-76
2023/08/06 00:13:13;;;;;;;2.45;1.52;;;13.20;99.90;;;;;;5007616;28;20042;-77
2023/08/06 00:15:40;;;;;;;4.63;1.48;;;13.10;99.90;;;;;;4992108;28;20062;-77
2023/08/06 00:18:09;;;;;;;1.45;1.20;;;13.10;99.90;;;;;;5019500;28;20574;-77
2023/08/06 00:20:40;;;;;;;1.65;1.10;;;13.10;99.90;;;;;;5003919;28;20100;-77
2023/08/06 00:23:08;;;;;;;2.10;1.40;;;13.10;99.90;;;;;;4997970;28;20073;-76
2023/08/06 00:25:35;;;;;;;2.40;1.58;;;13.10;99.90;;;;;;4977823;28;20053;-76
2023/08/06 00:28:02;;;;;;;2.75;1.60;;;13.00;99.90;;;;;;4992279;28;20054;-76
2023/08/06 00:30:29;;;;;;;1.48;1.20;;;13.00;99.90;;;;;;4989704;28;20049;-75
2023/08/06 00:32:55;;;;;;;3.03;1.20;;;13.00;99.90;;;;;;5000663;28;20042;-75
2023/08/06 00:35:22;;;;;;;1.95;1.50;;;13.00;99.90;;;;;;5000628;28;20155;-75
2023/08/06 00:37:49;;;;;;;2.17;1.70;;;13.00;67.10;;;;;;5008445;28;20056;-75
2023/08/06 00:40:16;;;;;;;1.73;1.13;;;13.00;93.60;;;;;;5018887;28;20901;-77
2023/08/06 00:42:44;;;;;;;2.80;1.50;;;13.00;64.20;;;;;;4986080;28;20381;-76
2023/08/06 00:45:11;;;;;;;2.42;1.30;;;13.00;99.90;;;;;;5006092;28;20050;-76
2023/08/06 00:47:39;;;;;;;2.55;1.40;;;13.00;99.90;;;;;;5004338;28;20041;-76
2023/08/06 00:50:07;;;;;;;2.10;1.10;;;13.00;91.70;;;;;;4999843;28;20666;-76
2023/08/06 00:52:34;;;;;;;0.85;0.70;;;13.10;65.30;;;;;;5015290;28;20075;-76
2023/08/06 00:55:01;;;;;;;1.77;1.08;;;13.00;82.70;;;;;;5016343;28;20095;-76
2023/08/06 00:57:28;;;;;;;2.95;1.30;;;13.00;23.20;;;;;;4995655;28;20073;-76
2023/08/06 00:59:55;;;;;;;1.25;0.80;;;13.00;1.00;;;;;;5001300;28;20053;-77
2023/08/06 01:02:25;;;;;;;3.25;1.42;;;13.00;1.00;;;;;;5016683;28;20049;-76
2023/08/06 01:04:52;;;;;;;3.25;1.20;;;13.00;99.90;;;;;;5023575;28;20142;-78
2023/08/06 01:07:21;;;;;;;2.13;1.40;;;12.90;1.00;;;;;;4986953;28;20130;-77
2023/08/06 01:10:10;;;;;;;1.40;1.10;;;12.90;1.00;;;;;;5009301;28;20075;-77
2023/08/06 01:13:12;;;;;;;1.70;1.00;;;12.80;99.90;;;;;;5023337;28;20108;-76
2023/08/06 01:15:43;;;;;;;1.77;1.23;;;12.80;99.90;;;;;;4986473;28;20100;-77
2023/08/06 01:18:10;;;;;;;2.28;1.42;;;12.70;1.00;;;;;;5021056;28;20038;-76
2023/08/06 01:20:37;;;;;;;3.55;1.60;;;12.80;1.00;;;;;;5004306;28;20068;-77
2023/08/06 01:23:04;;;;;;;1.98;1.15;;;12.70;1.00;;;;;;5008703;28;20046;-77
2023/08/06 01:25:35;;;;;;;1.83;1.23;;;12.70;1.00;;;;;;5005113;28;20068;-77
2023/08/06 01:28:08;;;;;;;1.50;1.10;;;12.70;1.00;;;;;;4990906;28;20057;-77
2023/08/06 01:30:37;;;;;;;2.15;1.20;;;12.60;1.00;;;;;;5004172;28;20048;-77
2023/08/06 01:33:04;;;;;;;2.75;1.30;;;12.60;1.00;;;;;;5004599;28;20046;-77
2023/08/06 01:35:31;;;;;;;1.50;1.00;;;12.60;1.00;;;;;;4990336;28;20061;-77
2023/08/06 01:37:59;;;;;;;1.55;1.00;;;12.60;1.00;;;;;;5007214;28;20041;-77
2023/08/06 01:40:28;;;;;;;2.17;1.80;;;12.60;1.00;;;;;;5012028;28;20045;-77
2023/08/06 01:42:55;;;;;;;2.05;1.40;;;12.60;1.00;;;;;;5026308;28;20053;-77
2023/08/06 01:45:21;;;;;;;1.63;1.38;;;12.60;1.00;;;;;;5020866;28;20122;-77
2023/08/06 01:47:48;;;;;;;1.95;1.40;;;12.60;1.00;;;;;;5004649;28;20042;-77
2023/08/06 01:50:15;;;;;;;1.75;1.08;;;12.60;1.00;;;;;;5011975;28;20048;-77
2023/08/06 01:52:42;;;;;;;2.08;1.30;;;12.60;1.00;;;;;;5026333;28;20053;-76
2023/08/06 01:55:09;;;;;;;2.30;1.23;;;12.60;1.00;;;;;;5007531;28;20133;-77
2023/08/06 01:57:35;;;;;;;1.45;1.10;;;12.50;1.00;;;;;;5005948;28;20042;-76
2023/08/06 02:00:03;;;;;;;2.70;1.60;;;12.50;1.00;;;;;;5019626;28;20205;-77
2023/08/06 02:02:30;;;;;;;1.90;1.40;;;12.50;1.00;;;;;;5012968;28;20557;-77
2023/08/06 02:04:58;;;;;;;2.08;1.48;;;12.50;1.00;;;;;;5007815;28;20046;-77
2023/08/06 02:07:25;;;;;;;1.75;1.30;;;12.50;1.00;;;;;;5003548;28;20126;-77
2023/08/06 02:09:51;;;;;;;2.88;1.27;;;12.50;1.00;;;;;;5022755;28;20045;-77
2023/08/06 02:12:18;;;;;;;3.10;1.52;;;12.50;1.00;;;;;;5021768;28;20166;-77
2023/08/06 02:14:45;;;;;;;1.50;1.13;;;12.50;1.00;;;;;;5011717;28;20038;-77
2023/08/06 02:17:12;;;;;;;3.75;1.33;;;12.60;1.00;;;;;;5007619;28;20057;-77
2023/08/06 02:19:39;;;;;;;1.35;1.00;;;12.60;1.00;;;;;;5008768;28;20067;-77
2023/08/06 02:22:05;;;;;;;2.85;1.20;;;12.60;1.00;;;;;;5019115;28;20072;-77
2023/08/06 02:24:32;;;;;;;1.85;1.10;;;12.60;1.00;;;;;;4993643;28;20057;-77
2023/08/06 02:26:59;;;;;;;2.33;1.20;;;12.60;1.00;;;;;;5016510;28;20344;-77
2023/08/06 02:29:26;;;;;;;1.30;0.80;;;12.60;1.00;;;;;;5022734;28;20053;-77
2023/08/06 02:31:53;;;;;;;4.20;1.30;;;12.50;1.00;;;;;;5007589;28;20570;-77
2023/08/06 02:34:20;;;;;;;2.42;1.15;;;12.50;1.00;;;;;;5025398;28;20053;-77
2023/08/06 02:36:47;;;;;;;1.33;1.02;;;12.50;1.00;;;;;;5024034;28;20779;-77
2023/08/06 02:39:14;;;;;;;1.80;1.08;;;12.40;1.00;;;;;;5023908;28;20111;-77
2023/08/06 02:41:41;;;;;;;1.67;1.38;;;12.40;1.00;;;;;;5007598;28;20045;-77
2023/08/06 02:44:07;;;;;;;1.35;1.05;;;12.30;1.00;;;;;;5024261;28;20073;-77
2023/08/06 02:46:34;;;;;;;1.13;1.00;;;12.30;1.00;;;;;;5006429;28;20045;-77
2023/08/06 02:49:01;;;;;;;2.35;1.48;;;12.30;1.00;;;;;;5023310;28;20470;-77
2023/08/06 02:51:28;;;;;;;1.95;1.17;;;12.20;2.20;;;;;;5022307;28;20069;-77
2023/08/06 02:53:54;;;;;;;1.55;1.15;;;12.20;11.00;;;;;;5022777;28;20154;-77
2023/08/06 02:56:21;;;;;;;2.67;1.13;;;12.10;37.40;;;;;;5023554;28;20119;-77
2023/08/06 02:58:48;;;;;;;1.63;1.27;;;12.10;46.40;;;;;;5023012;28;20073;-77
2023/08/06 03:01:15;;;;;;;1.33;1.02;;;12.10;67.90;;;;;;5024018;28;20045;-77
2023/08/06 03:03:42;;;;;;;1.55;1.30;;;12.00;87.20;;;;;;5023886;28;20049;-77
2023/08/06 03:06:08;;;;;;;1.38;0.90;;;12.00;94.90;;;;;;5023795;28;20129;-77
2023/08/06 03:08:35;;;;;;;3.17;1.40;;;12.00;99.90;;;;;;5021820;28;20053;-76
2023/08/06 03:11:02;;;;;;;1.55;1.15;;;12.00;54.30;;;;;;5018212;28;20441;-77
2023/08/06 03:13:29;;;;;;;1.40;1.10;;;12.00;71.10;;;;;;5005808;28;20050;-75
2023/08/06 03:15:56;;;;;;;1.95;1.25;;;12.00;94.90;;;;;;5023268;28;20139;-76
2023/08/06 03:18:23;;;;;;;1.95;1.10;;;11.90;55.40;;;;;;5006069;28;20053;-76
2023/08/06 03:20:50;;;;;;;2.28;0.98;;;11.90;28.30;;;;;;5006242;28;20535;-77
2023/08/06 03:23:17;;;;;;;1.92;1.25;;;11.90;28.30;;;;;;5022554;28;20053;-77
2023/08/06 03:25:44;;;;;;;2.03;1.45;;;11.90;47.50;;;;;;5022978;28;20488;-76
2023/08/06 03:28:11;;;;;;;1.85;1.23;;;11.80;60.40;;;;;;5006397;28;20117;-77
2023/08/06 03:30:38;;;;;;;1.25;0.95;;;11.80;74.70;;;;;;5024165;28;20100;-76
2023/08/06 03:33:05;;;;;;;1.92;1.17;;;11.80;88.50;;;;;;5021924;28;20045;-76
2023/08/06 03:35:32;;;;;;;1.50;1.10;;;11.80;91.40;;;;;;5022823;28;20045;-77
2023/08/06 03:37:58;;;;;;;1.40;1.10;;;11.70;99.90;;;;;;5018570;28;20056;-77
2023/08/06 03:40:25;;;;;;;1.15;0.90;;;11.70;99.90;;;;;;5006053;28;20099;-78
2023/08/06 03:42:52;;;;;;;2.25;0.98;;;11.70;99.90;;;;;;5022880;28;20126;-77
2023/08/06 03:45:19;;;;;;;2.17;1.25;;;11.70;99.90;;;;;;5006205;28;20053;-77
2023/08/06 03:47:46;;;;;;;1.75;1.27;;;11.60;99.90;;;;;;5023082;28;20064;-77
2023/08/06 03:50:13;;;;;;;2.35;1.40;;;11.60;99.90;;;;;;5023799;28;20123;-78
2023/08/06 03:52:40;;;;;;;2.20;1.45;;;11.60;99.90;;;;;;5021090;28;20573;-78
2023/08/06 03:55:07;;;;;;;2.28;1.63;;;11.60;99.90;;;;;;4990466;28;20049;-78
2023/08/06 03:57:34;;;;;;;1.65;1.20;;;11.60;99.90;;;;;;5000159;28;20049;-77
2023/08/06 04:00:03;;;;;;;2.15;1.40;;;11.60;99.90;;;;;;5006794;28;20049;-78
2023/08/06 04:02:30;;;;;;;1.30;1.10;;;11.60;98.60;;;;;;5006222;28;20055;-78
2023/08/06 04:04:58;;;;;;;1.40;1.20;;;11.60;85.10;;;;;;5021829;28;20061;-77
2023/08/06 04:07:25;;;;;;;1.58;1.17;;;11.60;99.90;;;;;;4988808;28;20550;-77
2023/08/06 04:09:53;;;;;;;1.75;1.23;;;11.60;90.20;;;;;;5005772;28;20072;-78
2023/08/06 04:12:21;;;;;;;1.55;1.05;;;11.60;46.90;;;;;;5021644;28;20658;-77
2023/08/06 04:14:50;;;;;;;1.52;1.10;;;11.60;63.90;;;;;;5006084;28;20405;-77
2023/08/06 04:17:20;;;;;;;1.75;1.10;;;11.50;58.40;;;;;;5021498;28;20064;-77
2023/08/06 04:19:53;;;;;;;1.77;0.95;;;11.50;54.20;;;;;;4990556;28;20064;-76
2023/08/06 04:22:20;;;;;;;1.30;0.98;;;11.50;53.80;;;;;;5021344;28;20134;-76
2023/08/06 04:24:47;;;;;;;1.63;0.85;;;11.50;63.60;;;;;;5021696;28;20041;-76
2023/08/06 04:27:15;;;;;;;1.48;1.05;;;11.50;82.10;;;;;;5021291;28;20052;-76
2023/08/06 04:29:42;;;;;;;1.52;0.85;;;11.40;99.90;;;;;;4990036;28;20136;-75
2023/08/06 04:32:09;;;;;;;1.42;0.90;;;11.40;99.90;;;;;;5021265;28;20088;-75
2023/08/06 04:34:36;;;;;;;1.08;0.85;;;11.40;99.90;;;;;;5009759;28;20531;-76
2023/08/06 04:37:04;;;;;;;1.55;1.13;;;11.40;99.90;;;;;;5008427;28;20076;-76
2023/08/06 04:39:30;;;;;;;1.45;1.20;;;11.40;99.90;;;;;;5026391;28;20053;-76
2023/08/06 04:41:57;;;;;;;1.40;1.10;;;11.40;99.90;;;;;;5025722;28;20519;-77
2023/08/06 04:44:24;;;;;;;1.63;0.90;;;11.40;99.90;;;;;;5009898;28;20142;-76
2023/08/06 04:46:51;;;;;;;1.65;1.25;;;11.30;99.90;;;;;;5025229;28;20052;-76
2023/08/06 04:49:22;;;;;;;1.23;0.95;;;11.40;99.90;;;;;;5009109;28;20103;-76
2023/08/06 04:51:49;;;;;;;1.35;1.00;;;11.30;99.90;;;;;;5004943;28;20038;-77
2023/08/06 04:54:18;;;;;;;1.67;1.10;;;11.30;99.90;;;;;;5000111;28;20056;-77
2023/08/06 04:56:45;;;;;;;2.25;1.15;;;11.30;99.90;;;;;;5029982;28;20275;-76
2023/08/06 04:59:12;;;;;;;1.85;1.38;;;11.30;99.90;;;;;;5012671;28;20096;-76
2023/08/06 05:01:39;;;;;;;1.80;1.30;;;11.30;99.90;;;;;;5007298;28;20101;-76
2023/08/06 05:04:06;;;;;;;1.70;1.08;;;11.40;99.90;;;;;;5017017;28;20100;-76
2023/08/06 05:06:33;;;;;;;1.45;1.00;;;11.40;99.90;;;;;;5021751;28;20094;-78
2023/08/06 05:09:00;;;;;;;1.65;1.30;;;11.40;99.90;;;;;;5020511;28;20045;-78
2023/08/06 05:11:27;;;;;;;1.67;0.98;;;11.40;99.90;;;;;;5022076;28;20084;-78
2023/08/06 05:13:53;;;;;;;1.38;1.10;;;11.40;99.90;;;;;;5024540;28;20057;-77
2023/08/06 05:16:20;;;;;;;1.33;1.00;;;11.40;99.90;;;;;;5025204;28;20077;-78
2023/08/06 05:18:47;;;;;;;1.60;1.05;;;11.40;99.90;;;;;;5024029;28;20050;-78
2023/08/06 05:21:16;;;;;;;2.72;1.55;;;11.40;99.90;;;;;;5025421;28;20107;-77
2023/08/06 05:23:42;;;;;;;1.48;1.13;;;11.40;99.90;;;;;;5021037;28;20582;-77
2023/08/06 05:26:10;;;;;;;1.98;1.20;;;11.40;99.90;;;;;;5021788;28;20077;-78
2023/08/06 05:28:36;;;;;;;1.88;1.48;;;11.40;99.90;;;;;;5022409;28;20099;-78
2023/08/06 05:31:06;;;;;;;1.90;1.20;;;11.50;99.90;;;;;;5005312;28;20053;-78
2023/08/06 05:33:33;;;;;;;1.70;1.20;;;11.50;99.90;;;;;;5003699;28;20115;-78
2023/08/06 05:36:00;;;;;;;1.55;1.05;;;11.50;99.90;;;;;;5021673;28;20041;-77
2023/08/06 05:38:26;;;;;;;1.50;1.10;;;11.50;99.90;;;;;;4990470;28;20456;-77
2023/08/06 05:40:54;;;;;;;1.85;1.00;;;11.60;99.90;;;;;;4987979;28;20049;-78
2023/08/06 05:43:21;;;;;;;1.70;1.20;;;11.60;99.90;;;;;;5018825;28;20141;-78
2023/08/06 05:45:49;;;;;;;2.03;1.15;;;11.70;99.90;;;;;;5002374;28;20160;-77
2023/08/06 05:48:16;;;;;;;1.48;1.10;;;11.70;99.30;;;;;;5001387;28;20566;-76
2023/08/06 05:50:43;;;;;;;1.50;1.10;;;11.70;99.90;;;;;;5009662;28;20501;-76
2023/08/06 05:53:10;;;;;;;1.33;1.00;;;11.80;99.90;;;;;;5016249;28;20073;-76
2023/08/06 05:55:38;;;;;;;1.83;1.40;;;11.80;64.20;;;;;;5017056;28;20442;-77
2023/08/06 05:58:05;;;;;;;2.13;1.50;;;11.80;1.00;;;;;;5018893;28;20057;-76
2023/08/06 06:00:32;;;;;;;1.52;1.17;;;11.80;1.00;;;;;;5017830;28;20054;-76
2023/08/06 06:02:59;;;;;;;1.70;1.33;;;11.90;1.00;;;;;;5014035;28;20057;-77
2023/08/06 06:05:26;;;;;;;2.05;1.40;;;12.00;1.00;;;;;;4998168;28;20160;-76
2023/08/06 06:07:53;;;;;;;1.85;1.25;;;12.00;1.00;;;;;;5019857;28;20119;-76
2023/08/06 06:10:19;;;;;;;1.63;1.15;;;12.10;1.00;;;;;;5016416;28;20050;-76
2023/08/06 06:12:46;;;;;;;1.55;1.00;;;12.10;1.00;;;;;;5002449;28;20099;-77
2023/08/06 06:15:13;;;;;;;1.55;1.08;;;12.10;1.00;;;;;;5000048;28;20095;-77
2023/08/06 06:17:40;;;;;;;1.40;0.98;;;12.20;99.90;;;;;;5017994;28;20104;-77
2023/08/06 06:20:07;;;;;;;2.35;1.30;;;12.20;99.90;;;;;;5015072;28;20053;-76
2023/08/06 06:22:34;;;;;;;1.67;1.10;;;12.30;99.90;;;;;;5017654;28;20049;-76
2023/08/06 06:25:01;;;;;;;1.83;1.25;;;12.30;99.90;;;;;;5012942;28;20323;-76
2023/08/06 06:27:28;;;;;;;2.17;1.58;;;12.30;99.90;;;;;;5013630;28;20463;-76
2023/08/06 06:29:55;;;;;;;1.75;1.23;;;12.40;99.90;;;;;;5012250;28;20123;-76
2023/08/06 06:32:22;;;;;;;1.77;1.20;;;12.40;99.90;;;;;;4999688;28;20157;-76
2023/08/06 06:34:49;;;;;;;1.77;1.15;;;12.50;99.90;;;;;;5014649;28;20148;-76
2023/08/06 06:37:16;;;;;;;1.63;1.08;;;12.50;99.90;;;;;;5018085;28;20115;-76
2023/08/06 06:39:44;;;;;;;1.77;1.17;;;12.60;99.90;;;;;;5023932;28;20053;-76
2023/08/06 06:42:10;;;;;;;1.80;1.30;;;12.60;75.50;;;;;;5021206;28;20108;-76
2023/08/06 06:44:38;;;;;;;2.30;1.50;;;12.60;44.50;;;;;;5023482;28;20057;-77
2023/08/06 06:47:05;;;;;;;1.40;1.00;;;12.70;37.10;;;;;;5024025;28;20064;-77
2023/08/06 06:49:32;;;;;;;1.52;1.17;;;12.70;99.90;;;;;;4987245;28;20073;-77
2023/08/06 06:51:59;;;;;;;1.65;1.20;;;12.80;1.00;;;;;;5020399;28;20877;-77
2023/08/06 06:54:26;;;;;;;2.13;1.30;;;12.90;1.00;;;;;;5003875;28;20097;-77
2023/08/06 06:56:53;;;;;;;1.60;1.30;;;12.90;1.00;;;;;;5014948;28;20052;-77
2023/08/06 06:59:20;;;;;;;2.22;1.23;;;13.00;1.00;;;;;;5016323;28;20596;-76
2023/08/06 07:01:47;;;;;;;1.63;1.00;;;13.00;99.90;;;;;;5014430;28;20135;-78
2023/08/06 07:04:14;;;;;;;1.80;1.25;;;13.10;99.90;;;;;;5001310;28;20107;-78
2023/08/06 07:06:41;;;;;;;2.03;1.67;;;13.10;99.90;;;;;;4997844;28;20050;-77
2023/08/06 07:09:08;;;;;;;1.73;1.35;;;13.10;99.90;;;;;;5015373;28;20045;-77
2023/08/06 07:11:34;;;;;;;2.42;1.60;;;13.20;74.00;;;;;;5018412;28;20081;-77
2023/08/06 07:14:01;;;;;;;1.27;1.17;;;13.30;99.90;;;;;;5017473;28;20087;-77
2023/08/06 07:16:29;;;;;;;2.03;1.55;;;13.30;20.10;;;;;;4999672;28;20077;-76
2023/08/06 07:18:56;;;;;;;1.75;1.55;;;13.40;99.90;;;;;;4999797;28;20754;-76
2023/08/06 07:21:23;;;;;;;1.92;1.35;;;13.40;99.90;;;;;;5015064;28;20050;-76
2023/08/06 07:23:49;;;;;;;2.17;1.38;;;13.50;1.00;;;;;;5017474;28;20508;-76
2023/08/06 07:26:17;;;;;;;1.83;1.15;;;13.60;99.90;;;;;;5022326;28;20524;-77
2023/08/06 07:28:44;;;;;;;2.53;1.50;;;13.60;69.70;;;;;;5002322;28;20504;-77
2023/08/06 07:31:11;;;;;;;1.92;1.50;;;13.70;99.90;;;;;;5003685;28;20448;-75
2023/08/06 07:33:39;;;;;;;1.63;1.17;;;13.70;99.90;;;;;;4989010;28;20142;-76
2023/08/06 07:36:10;;;;;;;2.70;1.33;;;13.80;99.90;;;;;;5002265;28;20404;-76
2023/08/06 07:38:37;;;;;;;1.35;1.10;;;13.90;99.90;;;;;;4982088;28;20085;-77
2023/08/06 07:41:05;;;;;;;1.35;1.00;;;13.90;99.90;;;;;;5010703;28;20044;-77
2023/08/06 07:43:32;;;;;;;2.28;1.30;;;14.00;99.90;;;;;;5020747;28;20065;-76
2023/08/06 07:46:02;;;;;;;1.75;1.30;;;14.10;57.60;;;;;;5013983;28;20056;-77
2023/08/06 07:48:29;;;;;;;1.90;1.50;;;14.20;99.90;;;;;;4995531;28;20111;-77
2023/08/06 07:50:56;;;;;;;2.55;1.52;;;14.20;99.90;;;;;;5014929;28;20049;-77
2023/08/06 07:53:23;;;;;;;2.00;1.23;;;14.20;99.90;;;;;;5008840;28;20053;-76
2023/08/06 07:55:51;;;;;;;1.65;1.23;;;14.30;1.00;;;;;;4999739;28;20119;-77
2023/08/06 07:58:21;;;;;;;1.73;1.30;;;14.30;1.00;;;;;;5012726;28;20064;-77
2023/08/06 08:00:48;;;;;;;2.08;1.33;;;14.40;1.00;;;;;;5003451;28;20064;-77
2023/08/06 08:03:15;;;;;;;3.08;1.67;;;14.40;1.00;;;;;;4995446;28;20062;-77
2023/08/06 08:05:43;;;;;;;2.22;1.58;;;14.40;92.20;;;;;;4985026;28;20072;-75
2023/08/06 08:08:09;;;;;;;1.42;1.00;;;14.50;1.00;;;;;;5008789;28;20089;-75
2023/08/06 08:10:38;;;;;;;2.53;1.42;;;14.60;99.90;;;;;;4999972;28;20100;-76
2023/08/06 08:13:05;;;;;;;1.63;1.23;;;14.60;99.90;;;;;;5015192;28;20608;-77
2023/08/06 08:15:32;;;;;;;1.35;1.20;;;14.60;34.50;;;;;;5000111;28;20340;-76
2023/08/06 08:17:59;;;;;;;1.90;1.38;;;14.70;1.00;;;;;;5016659;28;20053;-77
2023/08/06 08:20:31;;;;;;;2.03;1.17;;;14.80;99.90;;;;;;5023618;28;20098;-76
2023/08/06 08:22:59;;;;;;;1.83;1.23;;;14.80;99.90;;;;;;4982426;28;20064;-78
2023/08/06 08:25:26;;;;;;;1.35;1.25;;;14.90;99.90;;;;;;5016834;28;20137;-78
2023/08/06 08:27:58;;;;;;;1.45;1.20;;;14.90;99.90;;;;;;5019969;28;20071;-77
2023/08/06 08:30:25;;;;;;;1.52;1.02;;;15.00;57.10;;;;;;5015463;28;20190;-76
2023/08/06 08:32:52;;;;;;;1.85;1.10;;;15.10;1.00;;;;;;5015501;28;20171;-76
2023/08/06 08:35:19;;;;;;;1.60;1.13;;;15.10;99.90;;;;;;5011339;28;20421;-76
2023/08/06 08:37:47;;;;;;;1.67;1.10;;;15.20;99.90;;;;;;5016952;28;20140;-76
2023/08/06 08:40:14;;;;;;;1.98;1.35;;;15.20;99.90;;;;;;5013738;28;20100;-76
2023/08/06 08:42:42;;;;;;;1.33;1.15;;;15.30;99.90;;;;;;5014635;28;20049;-75
2023/08/06 08:45:16;;;;;;;1.85;1.00;;;15.30;99.90;;;;;;4999108;28;20053;-75
2023/08/06 08:47:44;;;;;;;1.42;1.10;;;15.40;99.90;;;;;;4992461;28;20057;-81
2023/08/06 08:50:11;;;;;;;2.42;1.20;;;15.40;99.90;;;;;;4980327;28;20485;-78
2023/08/06 08:52:38;;;;;;;1.52;1.13;;;15.50;99.90;;;;;;5007980;28;20522;-77
2023/08/06 08:55:06;;;;;;;2.10;1.10;;;15.40;77.50;;;;;;4999003;28;20405;-77
2023/08/06 08:57:33;;;;;;;1.85;1.27;;;15.50;83.30;;;;;;5014617;28;20467;-76
2023/08/06 09:00:00;;;;;;;1.90;1.30;;;15.60;93.70;;;;;;4999169;28;20064;-76
2023/08/06 09:02:29;;;;;;;1.42;1.00;;;15.80;91.40;;;;;;5013724;28;20160;-76
2023/08/06 09:05:01;;;;;;;1.85;1.23;;;16.00;85.90;;;;;;5015795;28;20042;-77
2023/08/06 09:07:29;;;;;;;1.10;1.00;;;16.20;81.50;;;;;;5013022;28;20045;-77
2023/08/06 09:09:56;;;;;;;1.52;1.00;;;16.30;70.50;;;;;;4978859;28;20041;-76
2023/08/06 09:12:23;;;;;;;1.38;1.00;;;16.30;67.80;;;;;;5001019;28;20085;-77
2023/08/06 09:14:50;;;;;;;1.27;0.95;;;16.30;67.50;;;;;;5011032;28;20056;-77
2023/08/06 09:17:19;;;;;;;2.13;1.05;;;16.40;59.20;;;;;;4996790;28;20092;-77
2023/08/06 09:19:48;;;;;;;3.00;1.60;;;16.40;54.80;;;;;;4999599;28;20077;-76
2023/08/06 09:22:15;;;;;;;2.10;1.33;;;16.50;59.50;;;;;;5016099;28;20041;-77
2023/08/06 09:24:42;;;;;;;1.20;1.00;;;16.70;50.00;;;;;;5007496;28;20049;-77
2023/08/06 09:27:13;;;;;;;1.70;1.30;;;16.70;46.90;;;;;;5007059;28;20053;-77
2023/08/06 09:29:46;;;;;;;2.30;1.40;;;16.70;40.50;;;;;;5007690;28;20053;-77
2023/08/06 09:32:13;;;;;;;1.60;1.20;;;16.60;40.40;;;;;;5023430;28;20061;-77
2023/08/06 09:34:42;;;;;;;2.00;1.33;;;16.70;39.30;;;;;;5018953;28;20049;-78
2023/08/06 09:37:10;;;;;;;2.05;1.25;;;16.80;34.50;;;;;;5015087;28;20124;-80
2023/08/06 09:39:38;;;;;;;1.48;1.00;;;16.90;37.50;;;;;;5035528;28;20119;-80
2023/08/06 09:42:05;;;;;;;1.45;1.00;;;17.00;28.70;;;;;;5005850;28;20049;-79
2023/08/06 09:44:32;;;;;;;1.30;1.10;;;16.90;26.50;;;;;;5022965;28;20077;-79
2023/08/06 09:47:01;;;;;;;1.70;1.08;;;17.00;27.80;;;;;;5000400;28;20818;-79
2023/08/06 09:49:41;;;;;;;1.75;1.13;;;17.20;29.70;;;;;;5012407;28;20053;-79
2023/08/06 09:52:16;;;;;;;2.03;1.33;;;17.60;29.70;;;;;;4997137;28;20625;-80
2023/08/06 09:54:43;;;;;;;1.77;1.20;;;17.80;25.40;;;;;;5018458;28;20111;-79
2023/08/06 09:57:11;;;;;;;2.10;1.13;;;17.90;21.20;;;;;;5022520;28;20041;-80
2023/08/06 09:59:38;;;;;;;0.98;0.90;;;18.10;19.80;;;;;;5015322;28;20345;-79
2023/08/06 10:02:09;;;;;;;1.85;1.38;;;18.20;22.30;;;;;;5009084;28;20112;-79
2023/08/06 10:04:37;;;;;;;1.92;1.08;;;18.30;16.20;;;;;;4993750;28;20056;-80
2023/08/06 10:07:07;;;;;;;1.83;0.90;;;18.40;11.90;;;;;;5015109;28;20103;-79
2023/08/06 10:09:34;;;;;;;1.67;1.10;;;18.50;11.60;;;;;;5001203;28;20286;-80
2023/08/06 10:12:01;;;;;;;1.33;1.10;;;18.40;10.00;;;;;;5015553;28;20054;-80
2023/08/06 10:14:31;;;;;;;1.33;0.95;;;18.60;12.90;;;;;;5016439;28;20056;-79
2023/08/06 10:16:58;;;;;;;2.03;1.20;;;18.90;12.30;;;;;;5001207;28;20049;-80
2023/08/06 10:19:25;;;;;;;1.52;1.27;;;18.80;9.50;;;;;;5011381;28;20045;-80
2023/08/06 10:22:11;;;;;;;2.58;1.88;;;18.90;9.80;;;;;;5007840;28;20081;-79
2023/08/06 10:24:54;;;;;;;2.38;1.50;;;18.80;8.80;;;;;;5014675;28;20416;-80
2023/08/06 10:27:41;;;;;;;1.90;1.00;;;18.80;9.50;;;;;;5007950;28;20080;-80
2023/08/06 10:30:27;;;;;;;1.50;1.17;;;19.10;11.50;;;;;;5010773;28;20787;-80
2023/08/06 10:32:56;;;;;;;1.42;0.95;;;19.30;12.70;;;;;;5025281;28;20053;-80
2023/08/06 10:35:28;;;;;;;1.35;1.10;;;19.40;12.00;;;;;;5001461;28;20137;-81
2023/08/06 10:38:07;;;;;;;1.65;1.00;;;19.30;8.20;;;;;;5028401;28;20115;-81
2023/08/06 10:40:34;;;;;;;1.25;1.00;;;19.30;6.10;;;;;;5017502;28;20459;-80
2023/08/06 10:43:02;;;;;;;1.00;0.82;;;19.10;5.30;;;;;;4989055;28;20065;-80
2023/08/06 10:45:30;;;;;;;1.52;1.13;;;19.00;8.40;;;;;;5026239;28;20592;-81
2023/08/06 10:47:57;;;;;;;2.10;1.15;;;18.80;6.00;;;;;;5035121;28;20070;-79
2023/08/06 10:50:24;;;;;;;1.25;0.80;;;18.60;7.00;;;;;;5005167;28;20620;-80
2023/08/06 10:52:51;;;;;;;1.30;0.90;;;18.70;9.90;;;;;;5007357;28;20067;-79
2023/08/06 10:55:25;;;;;;;0.98;0.65;;;18.80;12.30;;;;;;5016788;28;20188;-81
2023/08/06 10:57:53;;;;;;;1.30;1.00;;;18.90;13.60;;;;;;5031744;28;20060;-82
2023/08/06 11:00:26;;;;;;;1.45;0.75;;;18.80;12.30;;;;;;5028458;28;20128;-79
2023/08/06 11:02:53;;;;;;;1.35;0.98;;;18.70;11.50;;;;;;5035104;28;20045;-79
2023/08/06 11:05:20;;;;;;;1.58;0.90;;;18.40;10.00;;;;;;5016566;28;20111;-79
2023/08/06 11:07:49;;;;;;;1.10;0.70;;;18.30;11.80;;;;;;5025988;28;20052;-78
2023/08/06 11:10:16;;;;;;;1.80;0.80;;;18.40;13.60;;;;;;5018573;28;20064;-80
2023/08/06 11:12:43;;;;;;;1.40;0.88;;;18.40;13.70;;;;;;4967714;28;20053;-82
2023/08/06 11:15:11;;;;;;;1.35;0.82;;;18.50;14.30;;;;;;5012707;28;20080;-81
2023/08/06 11:17:39;;;;;;;0.80;0.60;;;18.60;14.10;;;;;;5018373;28;20053;-81
2023/08/06 11:20:07;;;;;;;1.25;1.00;;;18.40;14.40;;;;;;5014027;28;20049;-81
2023/08/06 11:22:35;;;;;;;1.35;0.85;;;18.20;14.40;;;;;;5017919;28;20512;-81
2023/08/06 11:25:02;;;;;;;1.15;0.70;;;18.20;14.10;;;;;;5017265;28;20669;-81
2023/08/06 11:27:29;;;;;;;1.40;0.90;;;18.10;16.00;;;;;;5021295;28;20115;-81
2023/08/06 11:29:56;;;;;;;1.25;0.80;;;18.00;13.20;;;;;;5013165;28;20077;-82
2023/08/06 11:32:23;;;;;;;1.20;0.88;;;17.80;14.80;;;;;;4993821;28;20517;-82
2023/08/06 11:34:50;;;;;;;1.50;1.10;;;17.90;16.80;;;;;;5011312;28;20084;-82
2023/08/06 11:37:20;;;;;;;1.10;0.90;;;17.90;17.30;;;;;;4995836;28;20151;-81
2023/08/06 11:39:50;;;;;;;1.77;1.20;;;18.00;20.20;;;;;;5001759;28;20438;-81
2023/08/06 11:42:17;;;;;;;1.90;0.98;;;18.10;20.60;;;;;;4983790;28;20111;-82
2023/08/06 11:44:45;;;;;;;1.67;1.10;;;18.40;20.10;;;;;;5014459;28;20142;-79
2023/08/06 11:47:14;;;;;;;0.90;0.80;;;18.70;21.70;;;;;;5013698;28;20404;-79
2023/08/06 11:49:44;;;;;;;1.45;1.15;;;18.80;22.30;;;;;;5015410;28;20113;-80
2023/08/06 11:52:19;;;;;;;2.05;1.13;;;18.90;21.00;;;;;;5015683;28;20045;-80
2023/08/06 11:55:15;;;;;;;1.25;0.90;;;19.20;22.60;;;;;;5013778;28;20119;-80
2023/08/06 11:57:45;;;;;;;1.52;1.05;;;19.60;23.40;;;;;;5015432;28;20093;-80
2023/08/06 12:00:13;;;;;;;1.35;1.05;;;20.00;26.70;;;;;;5014261;28;20049;-81
2023/08/06 12:02:42;;;;;;;1.35;1.10;;;20.30;24.00;;;;;;5016074;28;20062;-80
2023/08/06 12:05:13;;;;;;;1.70;1.30;;;20.40;21.50;;;;;;5014984;28;20056;-80
2023/08/06 12:07:48;;;;;;;1.27;1.13;;;20.50;22.40;;;;;;5014972;28;20041;-80
2023/08/06 12:10:17;;;;;;;1.52;1.20;;;20.20;19.60;;;;;;5017925;28;20281;-79
2023/08/06 12:12:44;;;;;;;1.55;1.20;;;20.40;21.00;;;;;;5013719;28;20049;-81
2023/08/06 12:15:12;;;;;;;1.35;0.90;;;20.50;19.10;;;;;;4986376;28;20061;-79
2023/08/06 12:17:39;;;;;;;1.05;0.95;;;20.70;19.80;;;;;;5024227;28;20045;-80
2023/08/06 12:20:07;;;;;;;1.13;1.00;;;21.30;23.30;;;;;;5020766;28;20059;-79
2023/08/06 12:22:35;;;;;;;2.03;0.90;;;21.90;25.70;;;;;;4985715;28;20219;-79
2023/08/06 12:25:03;;;;;;;1.10;0.93;;;21.70;20.50;;;;;;5015390;28;20045;-80
2023/08/06 12:27:30;;;;;;;1.13;0.85;;;21.50;19.70;;;;;;5006321;28;20153;-80
2023/08/06 12:29:57;;;;;;;0.80;0.60;;;21.30;16.90;;;;;;5014294;28;20053;-80
2023/08/06 12:32:24;;;;;;;1.52;0.85;;;21.00;15.40;;;;;;4993161;28;20550;-78
2023/08/06 12:34:51;;;;;;;1.00;0.90;;;20.80;9.80;;;;;;4989472;28;20045;-81
2023/08/06 12:37:19;;;;;;;0.98;0.60;;;20.40;9.60;;;;;;5004269;28;20045;-81
2023/08/06 12:39:47;;;;;;;0.70;0.60;;;20.20;9.70;;;;;;4995990;28;20688;-80
2023/08/06 12:42:14;;;;;;;1.00;0.80;;;20.20;10.90;;;;;;5019769;28;20131;-80
2023/08/06 12:44:41;;;;;;;1.02;0.85;;;20.30;11.40;;;;;;5022953;28;20061;-80
2023/08/06 12:47:08;;;;;;;1.13;0.90;;;20.10;9.00;;;;;;4985658;28;20603;-80
2023/08/06 12:49:35;;;;;;;1.00;0.80;;;20.10;9.00;;;;;;5019737;28;20053;-80
2023/08/06 12:52:04;;;;;;;0.82;0.70;;;20.50;10.60;;;;;;4985826;28;20056;-80
2023/08/06 12:54:36;;;;;;;1.13;0.75;;;20.70;11.60;;;;;;4991933;28;20077;-80